createdAt,value
2023-02-17T00:00:57.757Z,7.30
2023-02-17T00:03:25.049Z,8.23
2023-02-17T00:05:52.249Z,7.00
2023-02-17T00:08:18.923Z,7.35
2023-02-17T00:10:45.448Z,6.28
2023-02-17T00:13:12.088Z,5.90
2023-02-17T00:15:39.474Z,6.93
2023-02-17T00:18:06.334Z,6.85
2023-02-17T00:20:32.964Z,7.20
2023-02-17T00:22:59.672Z,6.75
2023-02-17T00:25:26.185Z,8.85
2023-02-17T00:27:52.990Z,6.78
2023-02-17T00:30:19.782Z,6.95
2023-02-17T00:32:46.449Z,7.60
2023-02-17T00:35:13.057Z,6.95
2023-02-17T00:37:45.396Z,7.30
2023-02-17T00:40:13.446Z,7.93
2023-02-17T00:42:40.084Z,7.22
2023-02-17T00:45:07.568Z,6.32
2023-02-17T00:47:34.598Z,6.43
2023-02-17T00:50:01.228Z,6.80
2023-02-17T00:52:27.837Z,6.82
2023-02-17T00:54:54.432Z,7.38
2023-02-17T00:57:20.974Z,7.20
2023-02-17T00:59:47.650Z,6.43
2023-02-17T01:02:14.260Z,6.60
2023-02-17T01:04:41.162Z,6.13
2023-02-17T01:07:07.729Z,6.47
2023-02-17T01:09:34.308Z,6.18
2023-02-17T01:12:00.865Z,5.85
2023-02-17T01:14:28.226Z,5.85
2023-02-17T01:16:55.874Z,5.43
2023-02-17T01:19:22.453Z,6.43
2023-02-17T01:21:49.319Z,5.30
2023-02-17T01:24:16.330Z,5.43
2023-02-17T01:26:43.108Z,5.35
2023-02-17T01:29:10.422Z,5.30
2023-02-17T01:31:37.142Z,5.70
2023-02-17T01:34:04.767Z,5.40
2023-02-17T01:36:32.098Z,5.10
2023-02-17T01:38:58.751Z,5.35
2023-02-17T01:41:27.023Z,5.00
2023-02-17T01:44:15.004Z,5.50
2023-02-17T01:46:44.532Z,5.25
2023-02-17T01:49:29.739Z,5.43
2023-02-17T01:52:03.800Z,5.40
2023-02-17T01:54:37.813Z,5.03
2023-02-17T01:57:08.329Z,5.32
2023-02-17T01:59:36.642Z,5.18
2023-02-17T02:02:06.270Z,6.10
2023-02-17T02:04:36.269Z,6.18
2023-02-17T02:07:06.241Z,5.28
2023-02-17T02:09:38.660Z,4.90
2023-02-17T02:12:42.363Z,5.25
2023-02-17T02:15:22.360Z,5.93
2023-02-17T02:18:12.836Z,4.93
2023-02-17T02:21:08.331Z,5.43
2023-02-17T02:23:52.992Z,5.65
2023-02-17T02:26:47.585Z,5.22
2023-02-17T02:29:29.375Z,5.15
2023-02-17T02:32:14.453Z,5.20
2023-02-17T02:35:10.491Z,5.50
2023-02-17T02:38:00.492Z,7.70
2023-02-17T02:40:32.617Z,7.43
2023-02-17T02:43:02.764Z,8.65
2023-02-17T02:45:29.538Z,8.60
2023-02-17T02:47:57.502Z,8.43
2023-02-17T02:50:59.678Z,7.90
2023-02-17T02:53:47.556Z,6.97
2023-02-17T02:56:52.069Z,7.05
2023-02-17T02:59:24.850Z,6.15
2023-02-17T03:02:04.418Z,6.03
2023-02-17T03:04:56.122Z,4.53
2023-02-17T03:07:33.702Z,3.88
2023-02-17T03:10:00.789Z,4.60
2023-02-17T03:12:28.266Z,4.15
2023-02-17T03:15:09.016Z,4.25
2023-02-17T03:17:35.674Z,5.05
2023-02-17T03:20:05.235Z,4.28
2023-02-17T03:22:36.920Z,4.47
2023-02-17T03:25:04.437Z,3.80
2023-02-17T03:27:31.493Z,4.28
2023-02-17T03:29:58.291Z,4.07
2023-02-17T03:32:25.174Z,5.03
2023-02-17T03:34:51.863Z,5.03
2023-02-17T03:37:19.271Z,5.05
2023-02-17T03:39:46.106Z,4.82
2023-02-17T03:42:12.715Z,4.60
2023-02-17T03:44:39.448Z,4.20
2023-02-17T03:47:07.096Z,5.18
2023-02-17T03:49:33.796Z,4.53
2023-02-17T03:52:00.314Z,4.60
2023-02-17T03:54:27.496Z,4.53
2023-02-17T03:56:54.191Z,4.88
2023-02-17T03:59:20.796Z,4.05
2023-02-17T04:01:47.374Z,5.45
2023-02-17T04:04:14.332Z,5.38
2023-02-17T04:06:40.941Z,4.97
2023-02-17T04:09:07.572Z,5.43
2023-02-17T04:11:34.212Z,4.70
2023-02-17T04:14:00.776Z,4.95
2023-02-17T04:16:27.439Z,4.40
2023-02-17T04:18:54.063Z,4.95
2023-02-17T04:21:20.711Z,4.65
2023-02-17T04:23:47.439Z,4.65
2023-02-17T04:26:14.188Z,4.50
2023-02-17T04:28:42.446Z,3.90
2023-02-17T04:31:09.786Z,3.95
2023-02-17T04:33:37.873Z,4.80
2023-02-17T04:36:05.683Z,3.85
2023-02-17T04:38:33.044Z,4.40
2023-02-17T04:41:00.496Z,4.85
2023-02-17T04:43:28.751Z,4.50
2023-02-17T04:45:56.001Z,4.85
2023-02-17T04:48:23.415Z,5.07
2023-02-17T04:50:50.366Z,4.65
2023-02-17T04:53:17.045Z,3.95
2023-02-17T04:55:43.798Z,3.90
2023-02-17T04:58:10.551Z,4.13
2023-02-17T05:00:37.427Z,3.90
2023-02-17T05:03:04.317Z,3.78
2023-02-17T05:05:30.969Z,4.00
2023-02-17T05:07:57.726Z,3.22
2023-02-17T05:10:24.424Z,3.85
2023-02-17T05:12:51.000Z,3.08
2023-02-17T05:15:17.781Z,3.05
2023-02-17T05:17:44.414Z,3.17
2023-02-17T05:20:11.401Z,3.85
2023-02-17T05:22:38.117Z,3.33
2023-02-17T05:25:04.944Z,3.50
2023-02-17T05:27:31.945Z,4.38
2023-02-17T05:29:58.484Z,3.92
2023-02-17T05:32:25.167Z,3.88
2023-02-17T05:34:51.816Z,3.83
2023-02-17T05:37:18.420Z,3.53
2023-02-17T05:39:45.772Z,3.53
2023-02-17T05:42:12.449Z,3.00
2023-02-17T05:44:39.006Z,3.20
2023-02-17T05:47:05.844Z,3.80
2023-02-17T05:49:32.591Z,4.03
2023-02-17T05:51:59.211Z,3.03
2023-02-17T05:54:25.718Z,3.88
2023-02-17T05:56:52.404Z,4.38
2023-02-17T05:59:19.659Z,4.50
2023-02-17T06:01:46.215Z,4.07
2023-02-17T06:04:12.789Z,4.75
2023-02-17T06:06:39.378Z,3.10
2023-02-17T06:09:05.935Z,3.67
2023-02-17T06:11:33.252Z,3.45
2023-02-17T06:13:59.826Z,3.45
2023-02-17T06:16:26.660Z,3.33
2023-02-17T06:18:53.206Z,3.63
2023-02-17T06:21:19.777Z,3.40
2023-02-17T06:23:46.741Z,3.05
2023-02-17T06:26:14.052Z,3.63
2023-02-17T06:28:40.615Z,3.30
2023-02-17T06:31:07.364Z,2.78
2023-02-17T06:33:33.970Z,2.90
2023-02-17T06:36:00.528Z,2.55
2023-02-17T06:38:27.300Z,3.63
2023-02-17T06:40:54.591Z,3.33
2023-02-17T06:43:21.120Z,3.00
2023-02-17T06:45:47.758Z,3.40
2023-02-17T06:48:14.381Z,3.67
2023-02-17T06:50:41.035Z,4.28
2023-02-17T06:53:07.562Z,4.07
2023-02-17T06:55:35.398Z,3.70
2023-02-17T06:58:01.926Z,3.75
2023-02-17T07:00:28.566Z,3.95
2023-02-17T07:02:55.164Z,5.03
2023-02-17T07:05:21.763Z,4.90
2023-02-17T07:07:48.248Z,4.90
2023-02-17T07:10:14.817Z,4.32
2023-02-17T07:12:41.350Z,4.07
2023-02-17T07:15:12.088Z,4.65
2023-02-17T07:17:39.075Z,4.38
2023-02-17T07:20:06.535Z,4.35
2023-02-17T07:22:33.070Z,3.88
2023-02-17T07:24:59.701Z,3.75
2023-02-17T07:27:26.276Z,3.90
2023-02-17T07:29:52.854Z,3.65
2023-02-17T07:32:19.573Z,4.65
2023-02-17T07:34:46.235Z,4.80
2023-02-17T07:37:13.101Z,4.97
2023-02-17T07:39:39.802Z,6.07
2023-02-17T07:42:06.661Z,6.53
2023-02-17T07:44:33.494Z,5.22
2023-02-17T07:47:00.156Z,6.22
2023-02-17T07:49:26.828Z,5.53
2023-02-17T07:51:53.582Z,5.63
2023-02-17T07:54:20.472Z,6.32
2023-02-17T07:56:47.281Z,6.95
2023-02-17T07:59:14.833Z,5.90
2023-02-17T08:01:41.637Z,6.45
2023-02-17T08:04:08.577Z,6.07
2023-02-17T08:06:37.422Z,6.28
2023-02-17T08:09:22.987Z,6.88
2023-02-17T08:12:08.199Z,8.63
2023-02-17T08:14:34.830Z,8.45
2023-02-17T08:17:01.890Z,7.97
2023-02-17T08:19:42.812Z,6.78
2023-02-17T08:22:13.721Z,6.70
2023-02-17T08:24:40.556Z,5.43
2023-02-17T08:27:07.560Z,5.38
2023-02-17T08:29:34.340Z,4.97
2023-02-17T08:32:01.237Z,3.92
2023-02-17T08:34:28.551Z,4.65
2023-02-17T08:36:55.214Z,4.22
2023-02-17T08:39:22.257Z,4.70
2023-02-17T08:41:48.858Z,4.35
2023-02-17T08:44:18.638Z,3.75
2023-02-17T08:46:48.072Z,5.53
2023-02-17T08:49:17.166Z,5.15
2023-02-17T08:51:45.044Z,4.32
2023-02-17T08:54:12.267Z,4.68
2023-02-17T08:56:40.520Z,4.30
2023-02-17T08:59:08.912Z,4.55
2023-02-17T09:01:36.804Z,3.65
2023-02-17T09:04:05.793Z,3.53
2023-02-17T09:06:47.156Z,3.85
2023-02-17T09:09:16.382Z,3.13
2023-02-17T09:11:44.248Z,2.92
2023-02-17T09:14:11.689Z,3.42
2023-02-17T09:16:41.104Z,2.97
2023-02-17T09:19:09.730Z,4.05
2023-02-17T09:21:36.718Z,4.20
2023-02-17T09:24:03.847Z,3.80
2023-02-17T09:26:30.464Z,3.75
2023-02-17T09:28:58.015Z,3.95
2023-02-17T09:31:27.210Z,3.65
2023-02-17T09:33:55.376Z,3.13
2023-02-17T09:36:25.806Z,3.55
2023-02-17T09:38:54.451Z,3.90
2023-02-17T09:41:37.914Z,3.90
2023-02-17T09:44:26.268Z,4.25
2023-02-17T09:47:02.774Z,5.35
2023-02-17T09:49:40.039Z,3.95
2023-02-17T09:52:12.753Z,3.55
2023-02-17T09:55:01.443Z,3.17
2023-02-17T09:57:31.390Z,4.45
2023-02-17T10:00:15.977Z,4.05
2023-02-17T10:02:55.150Z,3.85
2023-02-17T10:05:28.147Z,4.20
2023-02-17T10:08:02.739Z,3.88
2023-02-17T10:10:42.331Z,4.33
2023-02-17T10:13:10.299Z,4.28
2023-02-17T10:15:43.287Z,4.20
2023-02-17T10:18:19.789Z,4.88
2023-02-17T10:20:55.462Z,4.60
2023-02-17T10:23:25.606Z,4.47
2023-02-17T10:26:06.844Z,4.07
2023-02-17T10:29:14.739Z,3.47
2023-02-17T10:31:48.712Z,4.22
2023-02-17T10:34:18.628Z,4.28
2023-02-17T10:37:03.299Z,4.53
2023-02-17T10:39:50.657Z,3.50
2023-02-17T10:42:35.913Z,3.90
2023-02-17T10:45:30.664Z,3.10
2023-02-17T10:48:07.042Z,3.15
2023-02-17T10:50:36.788Z,3.47
2023-02-17T10:53:13.678Z,3.15
2023-02-17T10:56:04.182Z,4.10
2023-02-17T10:58:36.850Z,3.45
2023-02-17T11:01:06.179Z,3.45
2023-02-17T11:03:34.147Z,4.38
2023-02-17T11:06:16.682Z,5.25
2023-02-17T11:08:50.688Z,4.40
2023-02-17T11:11:20.932Z,4.45
2023-02-17T11:14:00.936Z,4.07
2023-02-17T11:16:33.414Z,3.65
2023-02-17T11:19:01.215Z,3.83
2023-02-17T11:21:29.380Z,3.67
2023-02-17T11:24:05.838Z,3.50
2023-02-17T11:26:36.244Z,3.47
2023-02-17T11:29:10.792Z,3.50
2023-02-17T11:31:40.800Z,3.67
2023-02-17T11:34:12.253Z,3.65
2023-02-17T11:36:40.058Z,3.55
2023-02-17T11:39:19.222Z,3.10
2023-02-17T11:41:46.113Z,3.03
2023-02-17T11:44:24.111Z,3.03
2023-02-17T11:46:54.906Z,2.95
2023-02-17T11:49:34.057Z,2.72
2023-02-17T11:52:19.326Z,2.22
2023-02-17T11:55:11.026Z,2.72
2023-02-17T11:57:45.252Z,2.55
2023-02-17T12:00:22.762Z,2.15
2023-02-17T12:02:52.634Z,2.35
2023-02-17T12:05:45.450Z,2.55
2023-02-17T12:08:30.533Z,2.42
2023-02-17T12:11:21.863Z,2.23
2023-02-17T12:14:19.259Z,2.38
2023-02-17T12:16:56.833Z,1.98
2023-02-17T12:19:26.892Z,2.22
2023-02-17T12:22:12.391Z,1.83
2023-02-17T12:24:42.208Z,2.08
2023-02-17T12:27:33.177Z,2.00
2023-02-17T12:30:26.300Z,1.60
2023-02-17T12:33:00.630Z,1.83
2023-02-17T12:35:39.217Z,1.95
2023-02-17T12:38:14.994Z,1.70
2023-02-17T12:40:52.134Z,1.50
2023-02-17T12:43:36.562Z,2.28
2023-02-17T12:46:08.076Z,1.67
2023-02-17T12:48:53.238Z,1.80
2023-02-17T12:51:39.975Z,1.67
2023-02-17T12:54:21.864Z,1.60
2023-02-17T12:57:02.933Z,1.80
2023-02-17T12:59:35.240Z,1.42
2023-02-17T13:02:05.163Z,1.50
2023-02-17T13:04:34.884Z,1.58
2023-02-17T13:07:21.405Z,1.30
2023-02-17T13:09:50.027Z,1.30
2023-02-17T13:12:22.880Z,1.35
2023-02-17T13:14:55.164Z,1.20
2023-02-17T13:17:24.750Z,1.80
2023-02-17T13:20:23.673Z,1.50
2023-02-17T13:22:50.579Z,1.65
2023-02-17T13:25:34.474Z,1.40
2023-02-17T13:28:15.471Z,1.77
2023-02-17T13:30:44.937Z,1.35
2023-02-17T13:33:20.761Z,1.35
2023-02-17T13:35:47.888Z,1.25
2023-02-17T13:38:30.349Z,1.00
2023-02-17T13:41:01.224Z,1.42
2023-02-17T13:43:31.301Z,1.10
2023-02-17T13:46:02.898Z,1.40
2023-02-17T13:48:35.330Z,1.52
2023-02-17T13:51:04.853Z,0.90
2023-02-17T13:53:37.502Z,0.90
2023-02-17T13:56:26.994Z,1.05
2023-02-17T13:58:54.833Z,1.02
2023-02-17T14:01:27.117Z,1.33
2023-02-17T14:03:56.255Z,1.13
2023-02-17T14:06:34.162Z,1.75
2023-02-17T14:09:23.738Z,1.38
2023-02-17T14:11:51.670Z,1.60
2023-02-17T14:14:18.769Z,2.05
2023-02-17T14:16:55.284Z,2.05
2023-02-17T14:19:22.066Z,1.70
2023-02-17T14:22:01.441Z,2.38
2023-02-17T14:24:37.593Z,2.65
2023-02-17T14:27:08.105Z,2.75
2023-02-17T14:29:53.134Z,2.85
2023-02-17T14:32:26.837Z,3.33
2023-02-17T14:34:53.498Z,3.00
2023-02-17T14:37:24.732Z,3.22
2023-02-17T14:39:51.378Z,4.30
2023-02-17T14:42:17.867Z,3.75
2023-02-17T14:44:44.786Z,3.00
2023-02-17T14:47:11.336Z,3.50
2023-02-17T14:49:37.864Z,3.55
2023-02-17T14:52:19.520Z,3.58
2023-02-17T14:54:46.201Z,3.88
2023-02-17T14:57:14.125Z,4.25
2023-02-17T14:59:41.481Z,3.47
2023-02-17T15:02:17.221Z,3.42
2023-02-17T15:04:43.958Z,3.72
2023-02-17T15:07:17.302Z,3.13
2023-02-17T15:09:46.142Z,3.95
2023-02-17T15:12:18.605Z,3.88
2023-02-17T15:14:46.893Z,4.32
2023-02-17T15:17:14.192Z,4.40
2023-02-17T15:19:41.040Z,3.67
2023-02-17T15:22:07.621Z,4.18
2023-02-17T15:24:35.024Z,4.20
2023-02-17T15:27:03.003Z,3.65
2023-02-17T15:29:30.092Z,3.03
2023-02-17T15:32:01.243Z,3.35
2023-02-17T15:34:32.401Z,3.17
2023-02-17T15:37:00.686Z,4.15
2023-02-17T15:39:28.431Z,3.03
2023-02-17T15:42:04.618Z,2.88
2023-02-17T15:44:40.840Z,2.63
2023-02-17T15:47:17.685Z,4.05
2023-02-17T15:49:44.753Z,3.40
2023-02-17T15:52:12.986Z,2.90
2023-02-17T15:54:41.155Z,3.47
2023-02-17T15:57:09.186Z,2.53
2023-02-17T15:59:39.467Z,3.35
2023-02-17T16:02:21.299Z,3.22
2023-02-17T16:04:48.732Z,3.22
2023-02-17T16:07:16.691Z,3.10
2023-02-17T16:09:47.063Z,3.58
2023-02-17T16:12:26.747Z,3.50
2023-02-17T16:14:54.756Z,3.08
2023-02-17T16:17:21.458Z,3.70
2023-02-17T16:19:48.202Z,3.22
2023-02-17T16:22:14.923Z,3.70
2023-02-17T16:24:41.959Z,2.78
2023-02-17T16:27:12.172Z,3.15
2023-02-17T16:29:39.321Z,2.83
2023-02-17T16:32:06.314Z,3.17
2023-02-17T16:34:34.500Z,3.88
2023-02-17T16:37:03.867Z,3.42
2023-02-17T16:39:30.576Z,3.47
2023-02-17T16:41:57.195Z,2.88
2023-02-17T16:44:23.927Z,3.40
2023-02-17T16:46:52.854Z,3.28
2023-02-17T16:49:32.404Z,2.53
2023-02-17T16:52:05.133Z,3.38
2023-02-17T16:54:34.377Z,3.10
2023-02-17T16:57:02.044Z,2.67
2023-02-17T16:59:29.299Z,2.92
2023-02-17T17:01:57.266Z,3.30
2023-02-17T17:04:24.608Z,2.80
2023-02-17T17:06:52.551Z,2.92
2023-02-17T17:09:21.798Z,2.70
2023-02-17T17:11:49.121Z,2.55
2023-02-17T17:14:16.325Z,3.22
2023-02-17T17:16:55.751Z,2.78
2023-02-17T17:19:22.482Z,3.15
2023-02-17T17:21:49.469Z,2.90
2023-02-17T17:24:16.040Z,2.78
2023-02-17T17:26:45.666Z,2.58
2023-02-17T17:29:14.111Z,2.90
2023-02-17T17:31:41.143Z,3.28
2023-02-17T17:34:08.189Z,3.20
2023-02-17T17:36:46.147Z,3.28
2023-02-17T17:39:23.817Z,3.05
2023-02-17T17:41:51.296Z,3.72
2023-02-17T17:44:18.865Z,2.42
2023-02-17T17:46:45.498Z,3.13
2023-02-17T17:49:15.187Z,2.90
2023-02-17T17:51:42.173Z,3.10
2023-02-17T17:54:09.210Z,3.25
2023-02-17T17:56:39.695Z,3.03
2023-02-17T17:59:06.656Z,2.90
2023-02-17T18:01:33.586Z,3.88
2023-02-17T18:04:01.262Z,3.42
2023-02-17T18:06:42.343Z,3.58
2023-02-17T18:09:25.772Z,2.85
2023-02-17T18:11:59.855Z,3.85
2023-02-17T18:14:26.421Z,3.63
2023-02-17T18:16:53.154Z,3.60
2023-02-17T18:19:20.433Z,3.67
2023-02-17T18:21:47.690Z,3.67
2023-02-17T18:24:14.586Z,3.58
2023-02-17T18:26:41.233Z,3.65
2023-02-17T18:29:08.077Z,3.92
2023-02-17T18:31:34.821Z,3.67
2023-02-17T18:34:01.490Z,3.72
2023-02-17T18:36:28.122Z,3.85
2023-02-17T18:38:54.882Z,4.20
2023-02-17T18:41:28.234Z,4.68
2023-02-17T18:43:56.552Z,4.28
2023-02-17T18:46:25.216Z,4.15
2023-02-17T18:48:54.017Z,4.07
2023-02-17T18:51:23.160Z,4.72
2023-02-17T18:53:51.039Z,4.63
2023-02-17T18:56:20.774Z,4.35
2023-02-17T18:58:51.873Z,4.53
2023-02-17T19:01:22.096Z,5.35
2023-02-17T19:03:48.979Z,4.78
2023-02-17T19:06:17.948Z,5.30
2023-02-17T19:08:45.900Z,5.32
2023-02-17T19:11:13.290Z,5.30
2023-02-17T19:13:41.213Z,5.88
2023-02-17T19:16:11.043Z,4.68
2023-02-17T19:18:39.883Z,5.60
2023-02-17T19:21:07.221Z,6.13
2023-02-17T19:23:34.009Z,6.53
2023-02-17T19:26:01.914Z,6.28
2023-02-17T19:28:28.692Z,5.85
2023-02-17T19:30:57.193Z,5.82
2023-02-17T19:33:24.619Z,5.20
2023-02-17T19:35:52.576Z,5.93
2023-02-17T19:38:19.350Z,5.55
2023-02-17T19:40:46.598Z,5.90
2023-02-17T19:43:13.249Z,7.55
2023-02-17T19:45:39.922Z,6.15
2023-02-17T19:48:06.942Z,6.57
2023-02-17T19:50:33.940Z,8.50
2023-02-17T19:53:00.701Z,6.80
2023-02-17T19:55:27.257Z,6.32
2023-02-17T19:57:53.867Z,7.28
2023-02-17T20:00:20.554Z,7.05
2023-02-17T20:02:47.340Z,6.45
2023-02-17T20:05:14.007Z,6.38
2023-02-17T20:07:40.693Z,6.03
2023-02-17T20:10:10.680Z,7.55
2023-02-17T20:12:38.151Z,5.25
2023-02-17T20:15:05.442Z,4.55
2023-02-17T20:17:32.212Z,3.40
2023-02-17T20:19:59.500Z,3.95
2023-02-17T20:22:26.266Z,3.22
2023-02-17T20:24:53.140Z,3.25
2023-02-17T20:27:19.741Z,2.97
2023-02-17T20:29:46.383Z,3.40
2023-02-17T20:32:13.117Z,3.92
2023-02-17T20:34:40.078Z,3.67
2023-02-17T20:37:07.992Z,3.00
2023-02-17T20:39:35.725Z,2.70
2023-02-17T20:42:03.957Z,3.30
2023-02-17T20:44:30.894Z,2.92
2023-02-17T20:46:57.701Z,3.33
2023-02-17T20:49:25.490Z,3.80
2023-02-17T20:51:52.371Z,3.08
2023-02-17T20:54:19.065Z,3.25
2023-02-17T20:56:47.369Z,3.30
2023-02-17T20:59:14.650Z,2.60
2023-02-17T21:01:42.262Z,3.70
2023-02-17T21:04:09.977Z,3.40
2023-02-17T21:06:40.975Z,3.22
2023-02-17T21:09:13.676Z,3.90
2023-02-17T21:11:40.680Z,3.30
2023-02-17T21:14:07.465Z,4.20
2023-02-17T21:16:34.119Z,4.20
2023-02-17T21:19:01.471Z,3.80
2023-02-17T21:21:29.281Z,3.53
2023-02-17T21:23:57.065Z,3.47
2023-02-17T21:26:23.808Z,4.40
2023-02-17T21:28:50.887Z,4.63
2023-02-17T21:31:18.231Z,4.55
2023-02-17T21:33:45.206Z,4.18
2023-02-17T21:36:14.219Z,4.10
2023-02-17T21:38:40.808Z,4.85
2023-02-17T21:41:10.583Z,4.25
2023-02-17T21:43:57.384Z,5.43
2023-02-17T21:46:24.797Z,4.75
2023-02-17T21:48:53.142Z,4.55
2023-02-17T21:51:20.277Z,4.88
2023-02-17T21:53:47.041Z,4.13
2023-02-17T21:56:14.220Z,4.63
2023-02-17T21:58:45.535Z,3.47
2023-02-17T22:01:12.521Z,4.10
2023-02-17T22:03:39.211Z,3.05
2023-02-17T22:06:14.345Z,3.72
2023-02-17T22:08:40.964Z,2.85
2023-02-17T22:11:20.209Z,2.88
2023-02-17T22:13:47.527Z,3.03
2023-02-17T22:16:14.657Z,3.50
2023-02-17T22:18:41.349Z,3.00
2023-02-17T22:21:13.030Z,3.03
2023-02-17T22:23:41.929Z,2.97
2023-02-17T22:26:11.157Z,3.10
2023-02-17T22:28:37.883Z,3.58
2023-02-17T22:31:05.336Z,3.60
2023-02-17T22:33:32.835Z,3.58
2023-02-17T22:36:10.191Z,4.28
2023-02-17T22:38:37.078Z,3.72
2023-02-17T22:41:08.822Z,3.40
2023-02-17T22:43:37.236Z,4.22
2023-02-17T22:46:04.211Z,4.57
2023-02-17T22:48:31.824Z,4.50
2023-02-17T22:50:58.800Z,3.90
2023-02-17T22:53:25.509Z,5.95
2023-02-17T22:55:57.946Z,5.60
2023-02-17T22:58:26.147Z,5.50
2023-02-17T23:01:03.152Z,5.45
2023-02-17T23:03:29.720Z,4.15
2023-02-17T23:06:01.162Z,5.13
2023-02-17T23:08:28.241Z,5.45
2023-02-17T23:10:54.758Z,4.57
2023-02-17T23:13:21.546Z,5.43
2023-02-17T23:15:48.203Z,5.60
2023-02-17T23:18:18.621Z,7.63
2023-02-17T23:20:48.142Z,6.75
2023-02-17T23:23:15.243Z,8.20
2023-02-17T23:25:48.135Z,7.47
2023-02-17T23:28:15.150Z,7.90
2023-02-17T23:30:42.335Z,8.23
2023-02-17T23:33:09.777Z,7.88
2023-02-17T23:35:47.478Z,8.77
2023-02-17T23:38:16.172Z,8.15
2023-02-17T23:40:46.971Z,7.82
2023-02-17T23:43:13.510Z,8.63
2023-02-17T23:45:40.040Z,8.30
2023-02-17T23:48:06.727Z,7.78
2023-02-17T23:50:33.498Z,7.63
2023-02-17T23:53:00.150Z,7.35
2023-02-17T23:55:26.875Z,8.48
2023-02-17T23:57:53.516Z,7.50
